Time;durP1;ratioP1;P1;durP2;ratioP2;P2;SDS_P1;SDS_P2;PMS_P1;PMS_P2;Temp;Humidity;BMP_temperature;BMP_pressure;BME280_temperature;BME280_humidity;BME280_pressure;Samples;Min_cycle;Max_cycle;Signal;HPM_P1;HPM_P2
2023/01/10 00:02:01;;;;;;;29.13;14.07;;;;;;;3.80;67.87;94220.53;5036766;28;20050;-79
2023/01/10 00:04:29;;;;;;;30.25;14.60;;;;;;;3.81;68.01;94135.84;5011428;28;20025;-80
2023/01/10 00:06:56;;;;;;;24.17;13.15;;;;;;;3.69;68.31;94207.09;5019383;28;20037;-80
2023/01/10 00:09:23;;;;;;;28.70;14.68;;;;;;;3.76;68.33;94174.38;5029441;28;20110;-79
2023/01/10 00:14:35;;;;;;;30.45;13.80;;;;;;;3.60;68.87;94179.66;5028557;28;20095;-79
2023/01/10 00:17:01;;;;;;;29.27;12.77;;;;;;;3.55;69.00;94172.72;5030444;28;20037;-78
2023/01/10 00:19:42;;;;;;;26.27;13.68;;;;;;;3.40;69.29;94185.75;5014669;28;20028;-78
2023/01/10 00:22:11;;;;;;;29.48;15.40;;;;;;;3.40;69.65;94145.00;5027013;28;20033;-81
2023/01/10 00:24:37;;;;;;;25.77;12.80;;;;;;;3.49;69.19;94184.47;5034502;28;20036;-81
2023/01/10 00:27:08;;;;;;;24.30;13.38;;;;;;;3.50;69.23;94137.88;5006572;28;20037;-80
2023/01/10 00:29:35;;;;;;;24.50;13.70;;;;;;;3.52;69.29;94165.41;5018877;28;20041;-78
2023/01/10 00:32:04;;;;;;;22.83;13.23;;;;;;;3.44;69.34;94139.47;5014315;28;20049;-79
2023/01/10 00:34:32;;;;;;;23.15;12.32;;;;;;;3.35;69.61;94144.69;5010420;28;20123;-81
2023/01/10 00:36:59;;;;;;;26.00;13.13;;;;;;;3.33;69.93;94155.97;5020381;28;20120;-77
2023/01/10 00:39:26;;;;;;;22.30;12.30;;;;;;;3.31;69.70;94141.22;5028617;28;20039;-78
2023/01/10 00:44:35;;;;;;;23.38;13.18;;;;;;;3.40;69.50;94128.69;5028444;28;20055;-80
2023/01/10 00:47:01;;;;;;;20.50;11.95;;;;;;;3.46;69.39;94116.16;5027899;28;20041;-80
2023/01/10 00:49:28;;;;;;;26.95;14.25;;;;;;;3.56;68.96;94113.72;5028351;28;20622;-80
2023/01/10 00:52:16;;;;;;;24.88;13.32;;;;;;;3.51;68.82;94101.34;5013830;28;20108;-78
2023/01/10 00:54:43;;;;;;;23.10;12.77;;;;;;;3.59;68.67;94153.66;5040165;28;20174;-79
2023/01/10 00:57:09;;;;;;;25.80;13.40;;;;;;;3.57;68.83;94129.59;5026961;28;20051;-79
2023/01/10 00:59:36;;;;;;;24.15;13.23;;;;;;;3.67;68.63;94157.78;5007365;28;20033;-80
2023/01/10 01:02:03;;;;;;;21.55;12.32;;;;;;;3.65;68.49;94128.31;5012924;28;20196;-79
2023/01/10 01:04:32;;;;;;;21.30;12.82;;;;;;;3.63;68.70;94160.56;5017341;28;20055;-80
2023/01/10 01:06:59;;;;;;;21.98;12.80;;;;;;;3.68;68.60;94113.13;5009983;28;20053;-81
2023/01/10 01:09:25;;;;;;;24.77;13.15;;;;;;;3.69;68.66;94130.97;5025210;28;20052;-79
2023/01/10 01:11:55;;;;;;;23.55;13.32;;;;;;;3.72;68.47;94109.16;5043851;28;20086;-80
2023/01/10 01:14:21;;;;;;;22.98;12.65;;;;;;;3.72;68.30;94146.44;5013281;28;20115;-79
2023/01/10 01:16:47;;;;;;;22.67;12.90;;;;;;;3.77;68.38;94139.78;5027748;28;20039;-81
2023/01/10 01:19:15;;;;;;;20.42;12.18;;;;;;;3.70;68.46;94137.94;5043246;28;20029;-81
2023/01/10 01:21:41;;;;;;;22.30;12.27;;;;;;;3.61;68.73;94124.91;5010729;28;20118;-79
2023/01/10 01:24:12;;;;;;;18.35;10.70;;;;;;;3.66;68.66;94110.81;5043286;28;20029;-79
2023/01/10 01:26:41;;;;;;;20.10;12.13;;;;;;;3.68;68.59;94115.84;5043866;28;20029;-80
2023/01/10 01:29:07;;;;;;;18.85;11.15;;;;;;;3.71;68.34;94115.78;5026591;28;20049;-80
2023/01/10 01:31:34;;;;;;;21.88;12.07;;;;;;;3.82;68.25;94134.66;5025960;28;20068;-79
2023/01/10 01:34:06;;;;;;;18.20;11.00;;;;;;;3.90;68.04;94110.81;5017174;28;20021;-80
2023/01/10 01:36:33;;;;;;;22.75;12.93;;;;;;;3.92;67.52;94122.06;5024456;28;20045;-79
2023/01/10 01:38:59;;;;;;;20.20;11.45;;;;;;;3.90;67.57;94103.47;5017099;28;20116;-80
2023/01/10 01:44:19;;;;;;;20.27;11.80;;;;;;;3.75;68.10;94087.78;5025317;28;20503;-81
2023/01/10 01:47:12;;;;;;;21.63;12.18;;;;;;;3.84;68.10;94116.00;5024739;28;20053;-80
2023/01/10 01:49:44;;;;;;;21.33;11.95;;;;;;;3.86;67.94;94116.34;5035427;28;20068;-79
2023/01/10 01:52:15;;;;;;;19.85;11.75;;;;;;;3.92;67.89;94136.44;5036363;28;20094;-80
2023/01/10 01:54:46;;;;;;;20.40;12.18;;;;;;;3.83;68.00;94097.34;5043746;28;20049;-82
2023/01/10 01:57:14;;;;;;;20.90;13.57;;;;;;;3.82;67.96;94072.13;5027545;28;20139;-80
2023/01/10 01:59:49;;;;;;;22.80;11.20;;;;;;;3.83;68.15;94081.03;5027880;28;20037;-79
2023/01/10 02:02:39;;;;;;;19.85;11.35;;;;;;;3.78;68.04;94063.25;5028877;28;20038;-79
2023/01/10 02:05:10;;;;;;;20.23;12.38;;;;;;;3.89;68.17;94110.06;5010612;28;20045;-80
2023/01/10 02:07:46;;;;;;;21.17;12.63;;;;;;;3.89;67.98;94090.25;5032630;28;20041;-81
2023/01/10 02:10:24;;;;;;;19.75;11.55;;;;;;;3.89;67.64;94092.97;5037079;28;20045;-79
2023/01/10 02:12:54;;;;;;;20.85;11.10;;;;;;;3.92;68.06;94052.13;5024385;28;20211;-80
2023/01/10 02:15:26;;;;;;;18.90;11.27;;;;;;;3.89;68.19;94088.31;5029060;28;20029;-79
2023/01/10 02:17:51;;;;;;;19.45;10.95;;;;;;;3.85;68.09;94067.81;5043882;28;20056;-80
2023/01/10 02:20:26;;;;;;;19.92;11.93;;;;;;;3.85;68.35;94057.72;5026446;28;20045;-80
2023/01/10 02:23:24;;;;;;;21.02;11.60;;;;;;;3.77;68.75;94031.81;5033618;28;20033;-80
2023/01/10 02:26:47;;;;;;;19.40;11.43;;;;;;;3.84;68.65;94053.47;5025232;28;20041;-80
2023/01/10 02:29:51;;;;;;;16.50;10.88;;;;;;;3.92;68.49;94043.22;5004712;28;20103;-80
2023/01/10 02:32:38;;;;;;;21.75;11.45;;;;;;;3.85;68.68;94037.91;5005438;28;20559;-79
2023/01/10 02:35:45;;;;;;;20.17;11.23;;;;;;;3.72;69.02;94054.03;5045000;28;20037;-79
2023/01/10 02:38:48;;;;;;;20.13;11.23;;;;;;;3.74;68.99;94048.97;5036453;28;20122;-80
2023/01/10 02:41:22;;;;;;;20.25;11.20;;;;;;;3.72;69.03;94045.88;5032430;28;20052;-81
2023/01/10 02:43:51;;;;;;;19.58;11.68;;;;;;;3.75;68.84;94061.38;5041829;28;20099;-79
2023/01/10 02:46:23;;;;;;;21.45;11.85;;;;;;;3.70;68.90;94043.56;5024357;28;20033;-80
2023/01/10 02:48:55;;;;;;;17.38;10.90;;;;;;;3.77;68.66;94050.84;5026729;28;20596;-79
2023/01/10 02:51:28;;;;;;;18.50;11.35;;;;;;;3.76;68.68;94054.75;5028154;28;20037;-80
2023/01/10 02:54:18;;;;;;;17.10;10.35;;;;;;;3.78;68.65;94057.81;5010034;28;20129;-80
2023/01/10 02:56:58;;;;;;;20.67;10.55;;;;;;;3.87;68.37;94058.06;5027372;28;20025;-81
2023/01/10 02:59:43;;;;;;;19.70;11.98;;;;;;;3.98;68.12;94072.22;5041274;28;20032;-80
2023/01/10 03:02:28;;;;;;;19.45;11.57;;;;;;;4.09;67.56;94061.16;5025515;28;20369;-78
2023/01/10 03:05:17;;;;;;;18.80;12.02;;;;;;;4.16;67.30;94080.06;5041632;28;20033;-80
2023/01/10 03:08:11;;;;;;;17.40;9.90;;;;;;;4.09;67.18;94057.69;5035300;28;20132;-79
2023/01/10 03:10:36;;;;;;;17.80;11.50;;;;;;;4.13;67.10;94063.81;5041984;28;20072;-81
2023/01/10 03:13:09;;;;;;;17.63;11.30;;;;;;;4.10;67.03;94064.66;5041485;28;20065;-80
2023/01/10 03:15:36;;;;;;;19.70;10.80;;;;;;;4.09;67.17;94068.56;5030730;28;20176;-80
2023/01/10 03:18:05;;;;;;;20.20;11.35;;;;;;;4.13;67.17;94074.69;5041555;28;20084;-79
2023/01/10 03:20:33;;;;;;;20.85;12.27;;;;;;;4.24;66.87;94080.72;5025997;28;20030;-80
2023/01/10 03:23:03;;;;;;;19.13;11.25;;;;;;;4.28;66.59;94091.53;5008628;28;20056;-79
2023/01/10 03:25:33;;;;;;;20.17;12.07;;;;;;;4.31;66.42;94079.84;5039913;28;20033;-78
2023/01/10 03:28:04;;;;;;;18.30;11.00;;;;;;;4.39;66.16;94086.66;5029005;28;20046;-79
2023/01/10 03:30:48;;;;;;;16.67;10.93;;;;;;;4.41;66.11;94074.16;5027891;28;20025;-78
2023/01/10 03:33:17;;;;;;;;;;;;;;;4.41;65.92;94062.50;5036215;28;20035;-80
2023/01/10 03:36:05;;;;;;;17.60;11.20;;;;;;;4.39;66.28;94073.81;5029186;28;20427;-80
2023/01/10 03:38:50;;;;;;;17.92;10.40;;;;;;;4.41;65.94;94067.97;5040778;28;20028;-82
2023/01/10 03:41:33;;;;;;;17.00;10.23;;;;;;;4.36;66.28;94066.50;5035617;28;20463;-82
2023/01/10 03:47:16;;;;;;;17.45;10.93;;;;;;;4.50;65.92;94062.75;5037040;28;20135;-81
2023/01/10 03:49:43;;;;;;;16.63;10.98;;;;;;;4.62;65.73;94061.34;5034483;28;20045;-81
2023/01/10 03:52:14;;;;;;;20.38;11.95;;;;;;;4.71;65.14;94037.06;5024686;28;20132;-78
2023/01/10 03:54:41;;;;;;;16.23;10.57;;;;;;;4.65;65.11;94039.50;5043295;28;20036;-80
2023/01/10 03:57:27;;;;;;;16.77;10.50;;;;;;;4.55;65.32;94023.38;5024367;28;20033;-80
2023/01/10 03:59:59;;;;;;;16.30;10.27;;;;;;;4.53;65.52;94005.53;5046150;28;20351;-80
2023/01/10 04:02:32;;;;;;;18.20;9.88;;;;;;;4.50;65.46;93995.47;5042539;28;20048;-80
2023/01/10 04:04:58;;;;;;;18.50;10.15;;;;;;;4.57;65.32;93977.44;5034916;28;20045;-79
2023/01/10 04:07:26;;;;;;;16.80;10.75;;;;;;;4.67;65.08;93977.22;5040721;28;20124;-80
2023/01/10 04:09:53;;;;;;;19.52;10.95;;;;;;;4.63;65.07;93973.03;5018889;28;20061;-80
2023/01/10 04:12:23;;;;;;;17.83;11.02;;;;;;;4.56;65.15;93952.19;5024132;28;20056;-80
2023/01/10 04:14:53;;;;;;;14.07;9.90;;;;;;;4.59;65.40;93958.72;5029777;28;20111;-79
2023/01/10 04:17:21;;;;;;;19.23;11.13;;;;;;;4.38;65.76;93955.28;5035032;28;20041;-82
2023/01/10 04:19:49;;;;;;;17.30;10.55;;;;;;;4.16;66.41;93962.34;5026894;28;20116;-80
2023/01/10 04:22:16;;;;;;;18.52;10.75;;;;;;;4.09;66.60;93995.88;5025771;28;20045;-81
2023/01/10 04:24:47;;;;;;;16.83;10.50;;;;;;;4.18;66.64;94027.97;5030617;28;20140;-81
2023/01/10 04:27:13;;;;;;;17.10;10.75;;;;;;;4.25;66.38;94046.91;5027512;28;20040;-81
2023/01/10 04:29:41;;;;;;;16.48;10.63;;;;;;;4.30;66.38;94067.38;5040919;28;20029;-81
2023/01/10 04:32:09;;;;;;;19.33;11.55;;;;;;;4.33;66.32;94066.56;4999493;28;20052;-81
2023/01/10 04:34:39;;;;;;;20.45;11.32;;;;;;;4.40;65.89;94059.03;5029310;28;20032;-80
2023/01/10 04:37:08;;;;;;;16.15;10.18;;;;;;;4.47;65.61;94077.16;5043099;28;20574;-81
2023/01/10 04:39:50;;;;;;;18.13;10.20;;;;;;;4.55;65.12;94083.25;5040616;28;20479;-79
2023/01/10 04:42:22;;;;;;;16.13;11.02;;;;;;;4.60;64.89;94067.22;5028314;28;20048;-80
2023/01/10 04:44:51;;;;;;;16.20;10.50;;;;;;;4.68;64.80;94049.53;5028255;28;20471;-81
2023/01/10 04:48:10;;;;;;;18.02;11.27;;;;;;;4.75;64.63;94043.16;5031297;28;20040;-81
2023/01/10 04:51:00;;;;;;;16.70;10.63;;;;;;;4.87;64.34;94028.13;5038916;28;20590;-79
2023/01/10 04:53:49;;;;;;;15.93;10.32;;;;;;;4.90;64.11;94024.59;5038000;28;20048;-81
2023/01/10 04:56:25;;;;;;;17.30;11.10;;;;;;;5.03;63.62;94033.63;4999513;28;20068;-81
2023/01/10 04:59:21;;;;;;;17.83;11.32;;;;;;;5.15;63.25;94043.88;5009343;28;20053;-82
2023/01/10 05:01:54;;;;;;;17.25;10.75;;;;;;;5.22;62.85;94023.88;5034489;28;20044;-80
2023/01/10 05:04:34;;;;;;;17.65;10.65;;;;;;;5.18;63.12;94023.19;5025221;28;20391;-79
2023/01/10 05:07:00;;;;;;;18.73;11.40;;;;;;;5.13;63.03;94012.78;5026110;28;20033;-77
2023/01/10 05:09:27;;;;;;;19.58;11.38;;;;;;;5.10;63.06;94017.13;5039639;28;20660;-79
2023/01/10 05:11:56;;;;;;;15.77;9.93;;;;;;;5.10;63.20;94019.06;5023362;28;20048;-78
2023/01/10 05:14:29;;;;;;;15.50;9.93;;;;;;;5.01;63.25;94014.22;5038832;28;20024;-78
2023/01/10 05:16:56;;;;;;;18.25;11.02;;;;;;;4.90;63.59;94014.47;5018049;28;20064;-81
2023/01/10 05:19:29;;;;;;;19.48;11.32;;;;;;;4.84;63.64;93999.81;5019505;28;20065;-81
2023/01/10 05:21:59;;;;;;;17.60;9.98;;;;;;;4.92;63.79;94003.13;5044389;28;20037;-81
2023/01/10 05:24:27;;;;;;;19.00;11.88;;;;;;;5.00;63.84;94016.19;5007798;28;20160;-80
2023/01/10 05:26:58;;;;;;;18.05;11.45;;;;;;;5.12;63.25;94016.72;5037101;28;20064;-79
2023/01/10 05:29:24;;;;;;;17.75;11.10;;;;;;;5.22;62.62;93991.94;5033497;28;20044;-79
2023/01/10 05:31:51;;;;;;;20.35;12.52;;;;;;;5.32;62.63;93993.63;5014564;28;20078;-78
2023/01/10 05:34:19;;;;;;;17.70;12.23;;;;;;;5.38;62.32;94002.06;5017545;28;20072;-80
2023/01/10 05:36:46;;;;;;;19.13;11.75;;;;;;;5.46;62.31;94019.03;5013728;28;20032;-80
2023/01/10 05:39:15;;;;;;;19.27;11.70;;;;;;;5.55;61.98;94025.41;5002914;28;20060;-81
2023/01/10 05:41:41;;;;;;;19.45;11.05;;;;;;;5.62;61.59;94038.13;5041534;28;20033;-75
2023/01/10 05:44:07;;;;;;;20.25;12.45;;;;;;;5.72;61.06;94034.34;5027382;28;20078;-79
2023/01/10 05:46:36;;;;;;;20.02;11.15;;;;;;;5.79;60.74;94033.41;5027631;28;20509;-77
2023/01/10 05:49:02;;;;;;;20.60;11.80;;;;;;;5.80;60.58;94027.53;5044049;28;20087;-79
2023/01/10 05:51:29;;;;;;;23.25;10.95;;;;;;;5.72;60.46;94025.41;5010385;28;20395;-77
2023/01/10 05:53:57;;;;;;;24.67;13.38;;;;;;;5.69;60.98;94029.78;5011399;28;20555;-79
2023/01/10 05:56:28;;;;;;;18.85;10.68;;;;;;;5.69;61.09;94018.09;5027816;28;20086;-80
2023/01/10 05:58:53;;;;;;;17.48;10.75;;;;;;;5.64;61.03;94013.91;5028110;28;20491;-79
2023/01/10 06:01:19;;;;;;;17.92;11.18;;;;;;;5.63;61.25;94023.31;5010621;28;20044;-79
2023/01/10 06:03:50;;;;;;;21.02;11.82;;;;;;;5.56;61.20;94020.72;5044695;28;20064;-78
2023/01/10 06:06:15;;;;;;;17.73;11.07;;;;;;;5.51;61.56;94024.75;5026286;28;20028;-79
2023/01/10 06:08:41;;;;;;;20.10;12.13;;;;;;;5.49;61.70;94016.22;5044506;28;20037;-76
2023/01/10 06:11:08;;;;;;;18.40;11.25;;;;;;;5.50;61.71;94016.97;5025058;28;20067;-78
2023/01/10 06:13:34;;;;;;;18.05;11.88;;;;;;;5.58;61.52;94027.31;5013185;28;20032;-77
2023/01/10 06:16:00;;;;;;;18.77;11.65;;;;;;;5.65;61.55;94031.81;5008100;28;20079;-78
2023/01/10 06:18:26;;;;;;;19.52;11.75;;;;;;;5.71;61.44;94042.97;4999595;28;20025;-77
2023/01/10 06:20:53;;;;;;;19.80;11.68;;;;;;;5.79;61.06;94041.59;5026290;28;20056;-77
2023/01/10 06:23:18;;;;;;;18.67;11.88;;;;;;;5.89;60.84;94043.28;5026988;28;20056;-76
2023/01/10 06:25:44;;;;;;;18.98;11.63;;;;;;;5.95;60.86;94035.38;5007305;28;20127;-78
2023/01/10 06:28:11;;;;;;;17.67;11.68;;;;;;;6.00;60.93;94034.88;5010743;28;20048;-77
2023/01/10 06:30:40;;;;;;;21.90;13.27;;;;;;;6.05;61.24;94020.72;5040347;28;20030;-78
2023/01/10 06:33:06;;;;;;;24.25;15.05;;;;;;;6.10;60.91;94026.41;5041342;28;20037;-77
2023/01/10 06:35:32;;;;;;;23.85;15.90;;;;;;;6.16;60.72;94023.94;5009707;28;20186;-78
2023/01/10 06:37:57;;;;;;;24.73;15.48;;;;;;;6.21;61.03;94026.13;5008537;28;20120;-79
2023/01/10 06:40:27;;;;;;;24.33;15.15;;;;;;;6.23;60.94;94020.25;5032352;28;20052;-80
2023/01/10 06:42:53;;;;;;;23.73;15.02;;;;;;;6.28;60.83;94025.19;5026966;28;20029;-78
2023/01/10 06:45:20;;;;;;;22.95;14.27;;;;;;;6.30;61.03;94039.16;5025389;28;20494;-76
2023/01/10 06:47:45;;;;;;;22.38;15.77;;;;;;;6.29;61.07;94032.94;5042057;28;20071;-80
2023/01/10 06:50:12;;;;;;;25.35;15.07;;;;;;;6.35;61.10;94036.66;5024629;28;20423;-78
2023/01/10 06:52:39;;;;;;;26.38;16.50;;;;;;;6.38;61.23;94041.28;5014274;28;20353;-77
2023/01/10 06:55:06;;;;;;;23.83;15.85;;;;;;;6.43;61.04;94037.25;5014731;28;20025;-76
2023/01/10 06:57:37;;;;;;;29.55;18.58;;;;;;;6.46;61.00;94036.38;5030237;28;20033;-78
2023/01/10 07:00:06;;;;;;;26.38;16.63;;;;;;;6.47;61.19;94035.16;5032130;28;20120;-77
2023/01/10 07:02:32;;;;;;;29.10;17.50;;;;;;;6.50;61.18;94019.91;5029852;28;20041;-78
2023/01/10 07:04:58;;;;;;;24.45;16.60;;;;;;;6.51;61.19;94019.47;5030737;28;20118;-76
2023/01/10 07:07:23;;;;;;;31.02;18.50;;;;;;;6.54;61.52;94012.38;5038825;28;20415;-78
2023/01/10 07:09:49;;;;;;;27.70;18.20;;;;;;;6.50;62.04;94007.03;5011315;28;20478;-77
2023/01/10 07:12:15;;;;;;;29.50;19.33;;;;;;;6.54;62.17;94002.22;5010930;28;20480;-77
2023/01/10 07:14:41;;;;;;;36.67;22.27;;;;;;;6.51;62.18;94002.31;5010437;28;20018;-76
2023/01/10 07:17:07;;;;;;;37.30;25.05;;;;;;;6.49;62.10;93989.09;5039631;28;20037;-78
2023/01/10 07:19:33;;;;;;;35.55;23.27;;;;;;;6.52;62.19;93996.41;5026345;28;20359;-75
2023/01/10 07:21:59;;;;;;;30.92;20.23;;;;;;;6.55;61.60;93995.56;5046830;28;20407;-76
2023/01/10 07:24:25;;;;;;;27.75;19.00;;;;;;;6.56;61.66;94001.78;5046937;28;20037;-75
2023/01/10 07:26:53;;;;;;;28.85;18.55;;;;;;;6.52;61.88;93993.69;5034720;28;20468;-77
2023/01/10 07:29:18;;;;;;;27.20;18.42;;;;;;;6.54;61.98;94001.47;5030840;28;20029;-75
2023/01/10 07:31:44;;;;;;;30.23;19.45;;;;;;;6.52;62.02;93996.41;5030220;28;20033;-74
2023/01/10 07:34:09;;;;;;;31.00;19.83;;;;;;;6.58;61.74;94002.13;5030451;28;20025;-75
2023/01/10 07:36:36;;;;;;;33.05;20.38;;;;;;;6.59;62.32;93998.94;5030301;28;20025;-75
2023/01/10 07:39:01;;;;;;;31.52;20.40;;;;;;;6.59;62.04;93993.47;5014491;28;20021;-75
2023/01/10 07:41:28;;;;;;;33.80;21.35;;;;;;;6.63;62.28;93999.63;5031444;28;20032;-75
2023/01/10 07:43:56;;;;;;;31.80;23.05;;;;;;;6.65;62.92;93997.22;5031049;28;20132;-76
2023/01/10 07:46:50;;;;;;;40.08;26.25;;;;;;;6.70;62.55;93995.91;5031161;28;20056;-78
2023/01/10 07:49:15;;;;;;;39.22;27.95;;;;;;;6.67;62.98;93987.84;5046247;28;20056;-76
2023/01/10 07:51:41;;;;;;;48.55;33.22;;;;;;;6.72;63.03;93990.78;5014400;28;20021;-75
2023/01/10 07:54:06;;;;;;;62.50;39.40;;;;;;;6.73;63.14;93999.75;5046884;28;20032;-76
2023/01/10 07:56:31;;;;;;;60.72;38.75;;;;;;;6.68;63.50;93994.81;5029706;28;20134;-76
2023/01/10 07:58:57;;;;;;;53.80;36.92;;;;;;;6.58;63.70;93981.03;5046971;28;20033;-76
2023/01/10 08:01:24;;;;;;;52.60;35.17;;;;;;;6.51;64.06;93991.41;5028343;28;20503;-76
2023/01/10 08:03:51;;;;;;;51.63;31.70;;;;;;;6.45;64.35;93993.91;5046964;28;20024;-75
2023/01/10 08:06:17;;;;;;;49.15;29.88;;;;;;;6.50;64.87;93993.38;5029025;28;20037;-75
2023/01/10 08:08:43;;;;;;;45.00;28.00;;;;;;;6.46;64.70;93986.47;5029735;28;20056;-77
2023/01/10 08:11:09;;;;;;;41.25;26.75;;;;;;;6.46;64.99;93989.97;5046169;28;20039;-77
2023/01/10 08:13:34;;;;;;;40.83;27.52;;;;;;;6.47;64.85;93983.28;5029516;28;20029;-75
2023/01/10 08:16:03;;;;;;;38.67;26.02;;;;;;;6.44;64.80;93969.75;5013277;28;20052;-76
2023/01/10 08:18:29;;;;;;;43.47;25.65;;;;;;;6.49;64.91;93980.16;5045906;28;20079;-77
2023/01/10 08:20:54;;;;;;;43.85;28.35;;;;;;;6.50;65.01;93978.94;5030444;28;20025;-74
2023/01/10 08:23:20;;;;;;;41.80;27.08;;;;;;;6.54;64.68;93983.13;5046394;28;20078;-76
2023/01/10 08:25:45;;;;;;;43.05;27.45;;;;;;;6.63;64.93;93969.56;5013103;28;20029;-76
2023/01/10 08:28:11;;;;;;;41.38;26.38;;;;;;;6.66;64.75;93965.22;5028995;28;20028;-75
2023/01/10 08:30:37;;;;;;;35.70;23.92;;;;;;;6.72;65.30;93954.53;5029556;28;20024;-74
2023/01/10 08:33:03;;;;;;;37.92;24.52;;;;;;;6.72;65.00;93952.56;5029435;28;20021;-76
2023/01/10 08:35:28;;;;;;;35.58;22.25;;;;;;;6.71;65.34;93942.84;5046008;28;20488;-76
2023/01/10 08:37:58;;;;;;;36.55;21.13;;;;;;;6.78;65.58;93948.06;5013159;28;20040;-76
2023/01/10 08:40:23;;;;;;;39.40;21.42;;;;;;;6.74;65.65;93946.66;5012307;28;20473;-76
2023/01/10 08:42:58;;;;;;;32.88;21.20;;;;;;;6.69;65.26;93937.03;5029270;28;20036;-76
2023/01/10 08:45:24;;;;;;;32.28;20.73;;;;;;;6.77;65.24;93943.81;5029030;28;20040;-76
2023/01/10 08:47:52;;;;;;;34.38;21.20;;;;;;;6.81;65.25;93949.16;5012771;28;20028;-76
2023/01/10 08:50:18;;;;;;;36.30;21.65;;;;;;;6.85;65.25;93942.41;5028905;28;20033;-76
2023/01/10 08:52:44;;;;;;;36.80;21.33;;;;;;;6.84;65.08;93937.38;5029218;28;20044;-78
2023/01/10 08:55:09;;;;;;;35.17;20.63;;;;;;;6.83;65.44;93931.16;5028940;28;20037;-78
2023/01/10 08:57:34;;;;;;;37.10;20.90;;;;;;;6.82;65.18;93937.03;5011788;28;20025;-77
2023/01/10 09:00:00;;;;;;;37.95;20.42;;;;;;;6.84;64.99;93940.09;5029190;28;20025;-77
2023/01/10 09:02:25;;;;;;;37.63;21.30;;;;;;;6.79;65.44;93941.41;5012082;28;20025;-76
2023/01/10 09:04:51;;;;;;;36.90;21.98;;;;;;;6.77;65.28;93932.13;5012859;28;20056;-77
2023/01/10 09:07:17;;;;;;;30.30;19.85;;;;;;;6.86;64.94;93930.25;5011818;28;20115;-75
2023/01/10 09:09:43;;;;;;;30.50;18.60;;;;;;;6.86;64.82;93919.34;5045166;28;20110;-76
2023/01/10 09:14:53;;;;;;;29.80;18.88;;;;;;;6.90;64.64;93911.03;5045086;28;20067;-77
2023/01/10 09:17:19;;;;;;;32.40;19.05;;;;;;;6.98;64.48;93927.97;5045364;28;20037;-76
2023/01/10 09:19:44;;;;;;;35.45;20.23;;;;;;;7.01;64.84;93924.38;5027956;28;20029;-76
2023/01/10 09:22:10;;;;;;;33.55;21.60;;;;;;;7.05;64.35;93928.50;5028456;28;20401;-76
2023/01/10 09:24:37;;;;;;;37.50;21.98;;;;;;;7.08;64.01;93919.44;5011302;28;20027;-76
2023/01/10 09:27:03;;;;;;;36.78;22.52;;;;;;;6.98;64.16;93927.97;5012685;28;20048;-77
2023/01/10 09:29:29;;;;;;;39.92;22.88;;;;;;;6.86;64.50;93922.06;5028449;28;20028;-75
2023/01/10 09:31:54;;;;;;;36.75;22.95;;;;;;;6.83;64.72;93919.47;5046454;28;20029;-76
2023/01/10 09:34:21;;;;;;;35.95;22.45;;;;;;;6.87;64.69;93928.28;5011609;28;20032;-76
2023/01/10 09:36:47;;;;;;;32.80;22.20;;;;;;;6.81;64.73;93903.47;5011404;28;20033;-77
2023/01/10 09:39:12;;;;;;;36.47;23.60;;;;;;;6.91;65.15;93915.28;5011697;28;20025;-76
2023/01/10 09:42:02;;;;;;;38.03;23.23;;;;;;;6.94;65.10;93906.22;5011225;28;20028;-76
2023/01/10 09:44:34;;;;;;;38.17;23.23;;;;;;;6.97;64.82;93899.13;5044363;28;20451;-77
2023/01/10 09:47:22;;;;;;;42.55;24.42;;;;;;;6.91;65.13;93877.03;5044685;28;20059;-77
2023/01/10 09:50:25;;;;;;;38.90;23.52;;;;;;;6.93;65.11;93883.59;5012267;28;20029;-77
2023/01/10 09:52:54;;;;;;;39.97;25.48;;;;;;;6.95;65.10;93877.69;5044511;28;20408;-77
2023/01/10 09:55:33;;;;;;;40.22;24.17;;;;;;;6.96;65.08;93883.94;5012184;28;20053;-76
2023/01/10 09:58:00;;;;;;;42.22;25.35;;;;;;;6.97;65.21;93886.22;5012449;28;20044;-75
2023/01/10 10:00:51;;;;;;;43.17;25.42;;;;;;;6.88;65.54;93878.69;5011194;28;20411;-77
2023/01/10 10:03:40;;;;;;;41.75;24.73;;;;;;;6.76;65.69;93873.22;5027109;28;20029;-76
2023/01/10 10:06:06;;;;;;;43.45;25.70;;;;;;;6.77;66.09;93864.59;5030281;28;20041;-75
2023/01/10 10:08:32;;;;;;;38.85;25.17;;;;;;;6.78;66.15;93865.38;5027544;28;20136;-76
2023/01/10 10:11:23;;;;;;;40.30;23.90;;;;;;;6.80;65.93;93860.97;5010622;28;20475;-77
2023/01/10 10:14:03;;;;;;;39.15;25.08;;;;;;;6.83;66.09;93865.59;5028304;28;20094;-76
2023/01/10 10:16:44;;;;;;;43.72;25.70;;;;;;;6.83;65.87;93868.31;5045412;28;20056;-76
2023/01/10 10:19:47;;;;;;;42.80;24.05;;;;;;;6.81;66.21;93864.47;5045417;28;20027;-76
2023/01/10 10:22:38;;;;;;;38.13;21.75;;;;;;;6.70;66.45;93861.31;5044359;28;20036;-77
2023/01/10 10:25:10;;;;;;;38.47;22.52;;;;;;;6.68;66.42;93859.03;5012834;28;20480;-77
2023/01/10 10:27:43;;;;;;;39.55;22.98;;;;;;;6.62;66.54;93856.06;5043706;28;20029;-77
2023/01/10 10:30:18;;;;;;;37.45;21.48;;;;;;;6.68;66.45;93863.72;5028056;28;20116;-78
2023/01/10 10:32:52;;;;;;;35.63;21.38;;;;;;;6.72;66.61;93859.69;5043712;28;20041;-77
2023/01/10 10:35:39;;;;;;;37.35;22.33;;;;;;;6.79;66.12;93848.53;5044250;28;20455;-76
2023/01/10 10:38:17;;;;;;;36.08;21.35;;;;;;;6.77;66.28;93844.72;5045130;28;20036;-78
2023/01/10 10:40:43;;;;;;;33.63;20.85;;;;;;;6.68;66.59;93844.59;5010938;28;20033;-78
2023/01/10 10:43:20;;;;;;;39.55;21.60;;;;;;;6.64;66.60;93831.81;5011122;28;20033;-76
2023/01/10 10:45:56;;;;;;;39.05;21.45;;;;;;;6.79;66.41;93842.31;5026700;28;20513;-75
2023/01/10 10:48:27;;;;;;;34.90;20.55;;;;;;;6.79;66.40;93834.13;5044984;28;20029;-75
2023/01/10 10:50:59;;;;;;;32.55;20.08;;;;;;;6.79;66.26;93834.88;5011206;28;20066;-77
2023/01/10 10:53:24;;;;;;;36.17;21.52;;;;;;;6.85;66.25;93824.16;5043676;28;20451;-76
2023/01/10 10:55:50;;;;;;;37.50;22.08;;;;;;;6.85;66.35;93816.72;5027390;28;20029;-76
2023/01/10 10:58:15;;;;;;;35.65;20.67;;;;;;;6.93;66.16;93831.66;5026781;28;20029;-76
2023/01/10 11:00:45;;;;;;;31.75;20.00;;;;;;;7.01;65.84;93831.47;5010332;28;20033;-76
2023/01/10 11:03:31;;;;;;;33.30;19.65;;;;;;;7.01;65.87;93847.84;5043423;28;20041;-76
2023/01/10 11:05:57;;;;;;;31.60;19.13;;;;;;;6.91;65.82;93836.81;5043682;28;20037;-76
2023/01/10 11:08:23;;;;;;;30.92;18.73;;;;;;;6.78;66.14;93832.59;5044709;28;20498;-76
2023/01/10 11:10:53;;;;;;;33.45;18.48;;;;;;;6.82;66.49;93833.97;5011181;28;20032;-77
2023/01/10 11:13:33;;;;;;;32.70;18.50;;;;;;;6.71;66.66;93811.72;5010548;28;20055;-75
2023/01/10 11:15:59;;;;;;;32.50;19.38;;;;;;;6.70;66.71;93818.38;5027371;28;20036;-76
2023/01/10 11:18:27;;;;;;;32.70;19.17;;;;;;;6.63;67.34;93813.16;5027506;28;20044;-77
2023/01/10 11:21:03;;;;;;;31.05;18.77;;;;;;;6.66;67.62;93812.28;5010209;28;20079;-78
2023/01/10 11:23:42;;;;;;;31.25;18.88;;;;;;;6.60;67.47;93800.38;5011010;28;20029;-77
2023/01/10 11:26:23;;;;;;;37.10;20.00;;;;;;;6.72;67.49;93807.03;5028219;28;20028;-77
2023/01/10 11:29:01;;;;;;;38.28;21.02;;;;;;;6.72;67.45;93815.22;5028637;28;20036;-76
2023/01/10 11:31:28;;;;;;;36.38;19.58;;;;;;;6.73;67.47;93809.31;5028678;28;20025;-77
2023/01/10 11:33:54;;;;;;;35.67;19.88;;;;;;;6.68;67.88;93815.31;5026657;28;20029;-77
2023/01/10 11:36:19;;;;;;;33.97;19.52;;;;;;;6.62;67.85;93811.63;5012904;28;20078;-77
2023/01/10 11:38:57;;;;;;;40.65;21.58;;;;;;;6.60;68.21;93808.56;5013875;28;20029;-76
2023/01/10 11:41:26;;;;;;;31.92;18.63;;;;;;;6.57;67.94;93801.25;5031610;28;20048;-76
2023/01/10 11:43:52;;;;;;;33.60;20.08;;;;;;;6.59;68.43;93799.59;5031104;28;20051;-76
2023/01/10 11:46:20;;;;;;;30.80;17.98;;;;;;;6.58;68.17;93808.22;5013291;28;20419;-77
2023/01/10 11:48:57;;;;;;;33.63;18.95;;;;;;;6.62;68.07;93806.91;5030376;28;20035;-76
2023/01/10 11:51:37;;;;;;;29.27;18.80;;;;;;;6.62;68.17;93803.44;5046512;28;20070;-75
2023/01/10 11:54:03;;;;;;;29.95;19.33;;;;;;;6.62;68.30;93806.91;5015558;28;20037;-77
2023/01/10 11:56:30;;;;;;;33.28;19.55;;;;;;;6.68;68.12;93807.13;5030046;28;20411;-76
2023/01/10 11:58:57;;;;;;;31.58;19.55;;;;;;;6.67;68.43;93807.59;5013234;28;20191;-76
2023/01/10 12:01:30;;;;;;;32.13;19.95;;;;;;;6.61;68.51;93794.47;5030165;28;20040;-75